sensor_id;sensor_type;location;lat;lon;timestamp;temperature;humidity
15991;DHT22;8100;50.994;4.538;2023-12-20T00:02:42;5.40;99.90
15991;DHT22;8100;50.994;4.538;2023-12-20T00:05:32;5.50;99.90
15991;DHT22;8100;50.994;4.538;2023-12-20T00:08:20;5.50;99.90
15991;DHT22;8100;50.994;4.538;2023-12-20T00:11:08;5.50;99.90
15991;DHT22;8100;50.994;4.538;2023-12-20T00:13:55;5.50;99.90
15991;DHT22;8100;50.994;4.538;2023-12-20T00:16:42;5.50;99.90
15991;DHT22;8100;50.994;4.538;2023-12-20T00:19:30;5.50;99.90
15991;DHT22;8100;50.994;4.538;2023-12-20T00:22:27;5.50;99.90
15991;DHT22;8100;50.994;4.538;2023-12-20T00:25:14;5.50;99.90
15991;DHT22;8100;50.994;4.538;2023-12-20T00:28:01;5.50;99.90
15991;DHT22;8100;50.994;4.538;2023-12-20T00:30:49;5.50;99.90
15991;DHT22;8100;50.994;4.538;2023-12-20T00:33:36;5.40;99.90
15991;DHT22;8100;50.994;4.538;2023-12-20T00:36:24;5.40;99.90
15991;DHT22;8100;50.994;4.538;2023-12-20T00:39:11;5.40;99.90
15991;DHT22;8100;50.994;4.538;2023-12-20T00:41:58;5.40;99.90
15991;DHT22;8100;50.994;4.538;2023-12-20T00:44:45;5.40;99.90
15991;DHT22;8100;50.994;4.538;2023-12-20T00:47:32;5.30;99.90
15991;DHT22;8100;50.994;4.538;2023-12-20T00:50:19;5.30;99.90
15991;DHT22;8100;50.994;4.538;2023-12-20T00:53:08;5.20;99.90
15991;DHT22;8100;50.994;4.538;2023-12-20T00:55:55;5.30;99.90
15991;DHT22;8100;50.994;4.538;2023-12-20T00:58:49;5.20;99.90
15991;DHT22;8100;50.994;4.538;2023-12-20T01:01:36;5.30;99.90
15991;DHT22;8100;50.994;4.538;2023-12-20T01:04:23;5.30;99.90
15991;DHT22;8100;50.994;4.538;2023-12-20T01:07:09;5.30;99.90
15991;DHT22;8100;50.994;4.538;2023-12-20T01:09:58;5.30;99.90
15991;DHT22;8100;50.994;4.538;2023-12-20T01:12:45;5.30;99.90
15991;DHT22;8100;50.994;4.538;2023-12-20T01:15:32;5.30;99.90
15991;DHT22;8100;50.994;4.538;2023-12-20T01:18:19;5.20;99.90
15991;DHT22;8100;50.994;4.538;2023-12-20T01:21:06;5.20;99.90
15991;DHT22;8100;50.994;4.538;2023-12-20T01:23:53;5.20;99.90
15991;DHT22;8100;50.994;4.538;2023-12-20T01:26:42;5.20;99.90
15991;DHT22;8100;50.994;4.538;2023-12-20T01:29:29;5.10;99.90
15991;DHT22;8100;50.994;4.538;2023-12-20T01:32:16;5.10;99.90
15991;DHT22;8100;50.994;4.538;2023-12-20T01:35:04;5.10;99.90
15991;DHT22;8100;50.994;4.538;2023-12-20T01:37:51;5.20;99.90
15991;DHT22;8100;50.994;4.538;2023-12-20T01:40:42;5.20;99.90
15991;DHT22;8100;50.994;4.538;2023-12-20T01:43:30;5.10;99.90
15991;DHT22;8100;50.994;4.538;2023-12-20T01:46:18;5.20;99.90
15991;DHT22;8100;50.994;4.538;2023-12-20T01:49:05;5.10;99.90
15991;DHT22;8100;50.994;4.538;2023-12-20T01:51:53;5.20;99.90
15991;DHT22;8100;50.994;4.538;2023-12-20T01:54:41;5.00;99.90
15991;DHT22;8100;50.994;4.538;2023-12-20T01:57:28;5.00;99.90
15991;DHT22;8100;50.994;4.538;2023-12-20T02:00:18;5.10;99.90
15991;DHT22;8100;50.994;4.538;2023-12-20T02:03:08;5.10;99.90
15991;DHT22;8100;50.994;4.538;2023-12-20T02:05:56;5.10;99.90
15991;DHT22;8100;50.994;4.538;2023-12-20T02:08:43;5.20;99.90
15991;DHT22;8100;50.994;4.538;2023-12-20T02:11:30;5.20;99.90
15991;DHT22;8100;50.994;4.538;2023-12-20T02:14:17;5.00;99.90
15991;DHT22;8100;50.994;4.538;2023-12-20T02:17:06;5.10;99.90
15991;DHT22;8100;50.994;4.538;2023-12-20T02:19:53;5.00;99.90
15991;DHT22;8100;50.994;4.538;2023-12-20T02:22:41;5.10;99.90
15991;DHT22;8100;50.994;4.538;2023-12-20T02:25:28;5.10;99.90
15991;DHT22;8100;50.994;4.538;2023-12-20T02:28:16;5.10;99.90
15991;DHT22;8100;50.994;4.538;2023-12-20T02:31:03;5.20;99.90
15991;DHT22;8100;50.994;4.538;2023-12-20T02:33:50;5.30;99.90
15991;DHT22;8100;50.994;4.538;2023-12-20T02:36:37;5.40;99.90
15991;DHT22;8100;50.994;4.538;2023-12-20T02:39:26;5.40;99.90
15991;DHT22;8100;50.994;4.538;2023-12-20T02:42:13;5.50;99.90
15991;DHT22;8100;50.994;4.538;2023-12-20T02:45:00;5.60;99.90
15991;DHT22;8100;50.994;4.538;2023-12-20T02:47:47;5.60;99.90
15991;DHT22;8100;50.994;4.538;2023-12-20T02:50:34;5.50;99.90
15991;DHT22;8100;50.994;4.538;2023-12-20T02:53:22;5.60;99.90
15991;DHT22;8100;50.994;4.538;2023-12-20T02:56:10;5.60;99.90
15991;DHT22;8100;50.994;4.538;2023-12-20T02:58:57;5.50;99.90
15991;DHT22;8100;50.994;4.538;2023-12-20T03:01:45;5.70;99.90
15991;DHT22;8100;50.994;4.538;2023-12-20T03:04:32;5.60;99.90
15991;DHT22;8100;50.994;4.538;2023-12-20T03:07:19;5.70;99.90
15991;DHT22;8100;50.994;4.538;2023-12-20T03:10:07;5.70;99.90
15991;DHT22;8100;50.994;4.538;2023-12-20T03:12:56;5.60;99.90
15991;DHT22;8100;50.994;4.538;2023-12-20T03:15:43;5.60;99.90
15991;DHT22;8100;50.994;4.538;2023-12-20T03:18:30;5.70;99.90
15991;DHT22;8100;50.994;4.538;2023-12-20T03:21:17;5.70;99.90
15991;DHT22;8100;50.994;4.538;2023-12-20T03:24:05;5.70;99.90
15991;DHT22;8100;50.994;4.538;2023-12-20T03:26:52;5.60;99.90
15991;DHT22;8100;50.994;4.538;2023-12-20T03:29:40;5.60;99.90
15991;DHT22;8100;50.994;4.538;2023-12-20T03:32:27;5.60;99.90
15991;DHT22;8100;50.994;4.538;2023-12-20T03:35:14;5.70;99.90
15991;DHT22;8100;50.994;4.538;2023-12-20T03:38:02;5.60;99.90
15991;DHT22;8100;50.994;4.538;2023-12-20T03:40:49;5.70;99.90
15991;DHT22;8100;50.994;4.538;2023-12-20T03:43:36;5.70;99.90
15991;DHT22;8100;50.994;4.538;2023-12-20T03:46:25;5.70;99.90
15991;DHT22;8100;50.994;4.538;2023-12-20T03:49:12;5.80;99.90
15991;DHT22;8100;50.994;4.538;2023-12-20T03:51:59;5.90;99.90
15991;DHT22;8100;50.994;4.538;2023-12-20T03:54:46;5.90;99.90
15991;DHT22;8100;50.994;4.538;2023-12-20T03:57:33;5.90;99.90
15991;DHT22;8100;50.994;4.538;2023-12-20T04:00:34;5.90;99.90
15991;DHT22;8100;50.994;4.538;2023-12-20T04:03:23;5.90;99.90
15991;DHT22;8100;50.994;4.538;2023-12-20T04:06:10;5.90;99.90
15991;DHT22;8100;50.994;4.538;2023-12-20T04:08:57;5.80;99.90
15991;DHT22;8100;50.994;4.538;2023-12-20T04:11:44;5.80;99.90
15991;DHT22;8100;50.994;4.538;2023-12-20T04:14:31;5.70;99.90
15991;DHT22;8100;50.994;4.538;2023-12-20T04:17:19;5.60;99.90
15991;DHT22;8100;50.994;4.538;2023-12-20T04:20:10;5.60;99.90
15991;DHT22;8100;50.994;4.538;2023-12-20T04:22:57;5.60;99.90
15991;DHT22;8100;50.994;4.538;2023-12-20T04:25:56;5.60;99.90
15991;DHT22;8100;50.994;4.538;2023-12-20T04:28:43;5.50;99.90
15991;DHT22;8100;50.994;4.538;2023-12-20T04:31:30;5.40;99.90
15991;DHT22;8100;50.994;4.538;2023-12-20T04:34:17;5.50;99.90
15991;DHT22;8100;50.994;4.538;2023-12-20T04:37:06;5.50;99.90
15991;DHT22;8100;50.994;4.538;2023-12-20T04:39:53;5.50;99.90
15991;DHT22;8100;50.994;4.538;2023-12-20T04:42:40;5.40;99.90
15991;DHT22;8100;50.994;4.538;2023-12-20T04:45:27;5.40;99.90
15991;DHT22;8100;50.994;4.538;2023-12-20T04:48:14;5.40;99.90
15991;DHT22;8100;50.994;4.538;2023-12-20T04:51:01;5.40;99.90
15991;DHT22;8100;50.994;4.538;2023-12-20T04:53:50;5.40;99.90
15991;DHT22;8100;50.994;4.538;2023-12-20T04:56:37;5.40;99.90
15991;DHT22;8100;50.994;4.538;2023-12-20T04:59:24;5.40;99.90
15991;DHT22;8100;50.994;4.538;2023-12-20T05:02:11;5.30;99.90
15991;DHT22;8100;50.994;4.538;2023-12-20T05:04:58;5.30;99.90
15991;DHT22;8100;50.994;4.538;2023-12-20T05:07:45;5.30;99.90
15991;DHT22;8100;50.994;4.538;2023-12-20T05:10:33;5.30;99.90
15991;DHT22;8100;50.994;4.538;2023-12-20T05:13:22;5.30;99.90
15991;DHT22;8100;50.994;4.538;2023-12-20T05:16:09;5.30;99.90
15991;DHT22;8100;50.994;4.538;2023-12-20T05:18:56;5.30;99.90
15991;DHT22;8100;50.994;4.538;2023-12-20T05:21:45;5.20;99.90
15991;DHT22;8100;50.994;4.538;2023-12-20T05:24:32;5.10;99.90
15991;DHT22;8100;50.994;4.538;2023-12-20T05:27:21;5.20;99.90
15991;DHT22;8100;50.994;4.538;2023-12-20T05:30:08;5.20;99.90
15991;DHT22;8100;50.994;4.538;2023-12-20T05:32:56;5.20;99.90
15991;DHT22;8100;50.994;4.538;2023-12-20T05:35:43;5.10;99.90
15991;DHT22;8100;50.994;4.538;2023-12-20T05:38:30;5.20;99.90
15991;DHT22;8100;50.994;4.538;2023-12-20T05:41:17;5.20;99.90
15991;DHT22;8100;50.994;4.538;2023-12-20T05:44:06;5.20;99.90
15991;DHT22;8100;50.994;4.538;2023-12-20T05:46:53;5.10;99.90
15991;DHT22;8100;50.994;4.538;2023-12-20T05:49:40;5.10;99.90
15991;DHT22;8100;50.994;4.538;2023-12-20T05:52:27;5.10;99.90
15991;DHT22;8100;50.994;4.538;2023-12-20T05:55:14;5.10;99.90
15991;DHT22;8100;50.994;4.538;2023-12-20T05:58:06;5.10;99.90
15991;DHT22;8100;50.994;4.538;2023-12-20T06:00:54;5.10;99.90
15991;DHT22;8100;50.994;4.538;2023-12-20T06:03:41;5.00;99.90
15991;DHT22;8100;50.994;4.538;2023-12-20T06:06:29;5.20;99.90
15991;DHT22;8100;50.994;4.538;2023-12-20T06:09:16;5.20;99.90
15991;DHT22;8100;50.994;4.538;2023-12-20T06:12:04;5.30;99.90
15991;DHT22;8100;50.994;4.538;2023-12-20T06:14:51;5.20;99.90
15991;DHT22;8100;50.994;4.538;2023-12-20T06:17:40;5.20;99.90
15991;DHT22;8100;50.994;4.538;2023-12-20T06:20:27;5.10;99.90
15991;DHT22;8100;50.994;4.538;2023-12-20T06:23:14;5.10;99.90
15991;DHT22;8100;50.994;4.538;2023-12-20T06:26:01;5.30;99.90
15991;DHT22;8100;50.994;4.538;2023-12-20T06:28:48;5.30;99.90
15991;DHT22;8100;50.994;4.538;2023-12-20T06:31:35;5.30;99.90
15991;DHT22;8100;50.994;4.538;2023-12-20T06:34:23;5.20;99.90
15991;DHT22;8100;50.994;4.538;2023-12-20T06:37:11;5.30;99.90
15991;DHT22;8100;50.994;4.538;2023-12-20T06:40:08;5.20;99.90
15991;DHT22;8100;50.994;4.538;2023-12-20T06:42:55;5.20;99.90
15991;DHT22;8100;50.994;4.538;2023-12-20T06:45:42;5.20;99.90
15991;DHT22;8100;50.994;4.538;2023-12-20T06:48:29;5.10;99.90
15991;DHT22;8100;50.994;4.538;2023-12-20T06:51:18;5.10;99.90
15991;DHT22;8100;50.994;4.538;2023-12-20T06:54:05;5.10;99.90
15991;DHT22;8100;50.994;4.538;2023-12-20T06:56:53;5.00;99.90
15991;DHT22;8100;50.994;4.538;2023-12-20T06:59:41;4.90;99.90
15991;DHT22;8100;50.994;4.538;2023-12-20T07:02:28;4.90;99.90
15991;DHT22;8100;50.994;4.538;2023-12-20T07:05:16;4.90;99.90
15991;DHT22;8100;50.994;4.538;2023-12-20T07:08:07;5.00;99.90
15991;DHT22;8100;50.994;4.538;2023-12-20T07:10:54;4.90;99.90
15991;DHT22;8100;50.994;4.538;2023-12-20T07:13:41;5.00;99.90
15991;DHT22;8100;50.994;4.538;2023-12-20T07:16:28;5.00;99.90
15991;DHT22;8100;50.994;4.538;2023-12-20T07:19:15;4.90;99.90
15991;DHT22;8100;50.994;4.538;2023-12-20T07:22:02;4.90;99.90
15991;DHT22;8100;50.994;4.538;2023-12-20T07:24:51;5.00;99.90
15991;DHT22;8100;50.994;4.538;2023-12-20T07:27:40;4.90;99.90
15991;DHT22;8100;50.994;4.538;2023-12-20T07:30:27;4.90;99.90
15991;DHT22;8100;50.994;4.538;2023-12-20T07:33:15;4.90;99.90
15991;DHT22;8100;50.994;4.538;2023-12-20T07:36:02;4.90;99.90
15991;DHT22;8100;50.994;4.538;2023-12-20T07:38:49;4.90;99.90
15991;DHT22;8100;50.994;4.538;2023-12-20T07:41:42;4.80;99.90
15991;DHT22;8100;50.994;4.538;2023-12-20T07:44:29;4.90;99.90
15991;DHT22;8100;50.994;4.538;2023-12-20T07:47:20;4.90;99.90
15991;DHT22;8100;50.994;4.538;2023-12-20T07:50:08;4.90;99.90
15991;DHT22;8100;50.994;4.538;2023-12-20T07:52:55;5.00;99.90
15991;DHT22;8100;50.994;4.538;2023-12-20T07:55:52;5.00;99.90
15991;DHT22;8100;50.994;4.538;2023-12-20T07:58:41;5.00;99.90
15991;DHT22;8100;50.994;4.538;2023-12-20T08:01:28;5.10;99.90
15991;DHT22;8100;50.994;4.538;2023-12-20T08:04:15;5.00;99.90
15991;DHT22;8100;50.994;4.538;2023-12-20T08:07:03;5.10;99.90
15991;DHT22;8100;50.994;4.538;2023-12-20T08:09:50;5.10;99.90
15991;DHT22;8100;50.994;4.538;2023-12-20T08:12:38;5.20;99.90
15991;DHT22;8100;50.994;4.538;2023-12-20T08:15:28;5.20;99.90
15991;DHT22;8100;50.994;4.538;2023-12-20T08:18:15;5.20;99.90
15991;DHT22;8100;50.994;4.538;2023-12-20T08:21:02;5.30;99.90
15991;DHT22;8100;50.994;4.538;2023-12-20T08:23:49;5.40;99.90
15991;DHT22;8100;50.994;4.538;2023-12-20T08:26:36;5.40;99.90
15991;DHT22;8100;50.994;4.538;2023-12-20T08:29:23;5.50;99.90
15991;DHT22;8100;50.994;4.538;2023-12-20T08:32:11;5.50;99.90
15991;DHT22;8100;50.994;4.538;2023-12-20T08:34:58;5.60;99.90
15991;DHT22;8100;50.994;4.538;2023-12-20T08:37:45;5.60;99.90
15991;DHT22;8100;50.994;4.538;2023-12-20T08:40:32;5.60;99.90
15991;DHT22;8100;50.994;4.538;2023-12-20T08:43:19;5.60;99.90
15991;DHT22;8100;50.994;4.538;2023-12-20T08:46:07;5.60;99.90
15991;DHT22;8100;50.994;4.538;2023-12-20T08:48:58;5.60;99.90
15991;DHT22;8100;50.994;4.538;2023-12-20T08:51:47;5.50;99.90
15991;DHT22;8100;50.994;4.538;2023-12-20T08:54:34;5.50;99.90
15991;DHT22;8100;50.994;4.538;2023-12-20T08:57:22;5.50;99.90
15991;DHT22;8100;50.994;4.538;2023-12-20T09:00:10;5.50;99.90
15991;DHT22;8100;50.994;4.538;2023-12-20T09:02:58;5.60;99.90
15991;DHT22;8100;50.994;4.538;2023-12-20T09:05:46;5.60;99.90
15991;DHT22;8100;50.994;4.538;2023-12-20T09:08:33;5.70;99.90
15991;DHT22;8100;50.994;4.538;2023-12-20T09:11:20;5.70;99.90
15991;DHT22;8100;50.994;4.538;2023-12-20T09:14:07;5.70;99.90
15991;DHT22;8100;50.994;4.538;2023-12-20T09:16:54;5.80;99.90
15991;DHT22;8100;50.994;4.538;2023-12-20T09:19:42;5.80;99.90
15991;DHT22;8100;50.994;4.538;2023-12-20T09:22:30;5.90;99.90
15991;DHT22;8100;50.994;4.538;2023-12-20T09:25:17;5.80;99.90
15991;DHT22;8100;50.994;4.538;2023-12-20T09:28:05;5.90;99.90
15991;DHT22;8100;50.994;4.538;2023-12-20T09:30:52;6.00;99.90
15991;DHT22;8100;50.994;4.538;2023-12-20T09:33:39;6.00;99.90
15991;DHT22;8100;50.994;4.538;2023-12-20T09:36:26;6.00;99.90
15991;DHT22;8100;50.994;4.538;2023-12-20T09:39:16;6.10;99.90
15991;DHT22;8100;50.994;4.538;2023-12-20T09:42:05;6.20;99.90
15991;DHT22;8100;50.994;4.538;2023-12-20T09:44:53;6.40;99.90
15991;DHT22;8100;50.994;4.538;2023-12-20T09:47:40;6.50;99.90
15991;DHT22;8100;50.994;4.538;2023-12-20T09:50:27;6.50;99.90
15991;DHT22;8100;50.994;4.538;2023-12-20T09:53:17;6.50;99.90
15991;DHT22;8100;50.994;4.538;2023-12-20T09:56:07;6.50;99.90
15991;DHT22;8100;50.994;4.538;2023-12-20T09:58:54;6.60;99.90
15991;DHT22;8100;50.994;4.538;2023-12-20T10:01:55;6.60;99.90
15991;DHT22;8100;50.994;4.538;2023-12-20T10:04:47;6.70;99.90
15991;DHT22;8100;50.994;4.538;2023-12-20T10:07:34;6.70;99.90
15991;DHT22;8100;50.994;4.538;2023-12-20T10:10:22;6.80;99.90
15991;DHT22;8100;50.994;4.538;2023-12-20T10:13:11;6.90;99.90
15991;DHT22;8100;50.994;4.538;2023-12-20T10:15:59;6.80;99.90
15991;DHT22;8100;50.994;4.538;2023-12-20T10:18:46;6.70;99.90
15991;DHT22;8100;50.994;4.538;2023-12-20T10:21:33;6.80;99.90
15991;DHT22;8100;50.994;4.538;2023-12-20T10:24:20;6.80;99.90
15991;DHT22;8100;50.994;4.538;2023-12-20T10:27:09;6.80;99.90
15991;DHT22;8100;50.994;4.538;2023-12-20T10:29:58;6.80;99.90
15991;DHT22;8100;50.994;4.538;2023-12-20T10:32:45;6.80;99.90
15991;DHT22;8100;50.994;4.538;2023-12-20T10:35:38;6.90;99.90
15991;DHT22;8100;50.994;4.538;2023-12-20T10:38:26;6.90;99.90
15991;DHT22;8100;50.994;4.538;2023-12-20T10:41:15;7.00;99.90
15991;DHT22;8100;50.994;4.538;2023-12-20T10:44:04;6.90;99.90
15991;DHT22;8100;50.994;4.538;2023-12-20T10:46:54;7.00;99.90
15991;DHT22;8100;50.994;4.538;2023-12-20T10:49:45;7.00;99.90
15991;DHT22;8100;50.994;4.538;2023-12-20T10:52:32;7.10;99.90
15991;DHT22;8100;50.994;4.538;2023-12-20T10:55:21;7.10;99.90
15991;DHT22;8100;50.994;4.538;2023-12-20T10:58:09;7.20;99.90
15991;DHT22;8100;50.994;4.538;2023-12-20T11:01:00;7.20;99.90
15991;DHT22;8100;50.994;4.538;2023-12-20T11:03:51;7.20;99.90
15991;DHT22;8100;50.994;4.538;2023-12-20T11:06:47;7.30;99.90
15991;DHT22;8100;50.994;4.538;2023-12-20T11:09:38;7.30;99.90
15991;DHT22;8100;50.994;4.538;2023-12-20T11:12:35;7.30;99.90
15991;DHT22;8100;50.994;4.538;2023-12-20T11:15:24;7.30;99.90
15991;DHT22;8100;50.994;4.538;2023-12-20T11:18:13;7.40;99.90
15991;DHT22;8100;50.994;4.538;2023-12-20T11:21:04;7.30;99.90
15991;DHT22;8100;50.994;4.538;2023-12-20T11:23:51;7.30;99.90
15991;DHT22;8100;50.994;4.538;2023-12-20T11:26:46;7.40;99.90
15991;DHT22;8100;50.994;4.538;2023-12-20T11:29:34;7.20;99.90
15991;DHT22;8100;50.994;4.538;2023-12-20T11:32:29;7.20;99.90
15991;DHT22;8100;50.994;4.538;2023-12-20T11:35:19;7.20;99.90
15991;DHT22;8100;50.994;4.538;2023-12-20T11:38:09;7.30;99.90
15991;DHT22;8100;50.994;4.538;2023-12-20T11:40:56;7.40;99.90
15991;DHT22;8100;50.994;4.538;2023-12-20T11:43:49;7.40;99.90
15991;DHT22;8100;50.994;4.538;2023-12-20T11:46:39;7.50;99.90
15991;DHT22;8100;50.994;4.538;2023-12-20T11:49:27;7.60;99.90
15991;DHT22;8100;50.994;4.538;2023-12-20T11:52:16;7.60;99.90
15991;DHT22;8100;50.994;4.538;2023-12-20T11:55:05;7.70;99.90
15991;DHT22;8100;50.994;4.538;2023-12-20T11:57:53;7.80;99.90
15991;DHT22;8100;50.994;4.538;2023-12-20T12:00:40;7.70;99.90
15991;DHT22;8100;50.994;4.538;2023-12-20T12:03:28;7.70;99.90
15991;DHT22;8100;50.994;4.538;2023-12-20T12:06:15;7.60;99.90
15991;DHT22;8100;50.994;4.538;2023-12-20T12:09:02;7.40;99.90
15991;DHT22;8100;50.994;4.538;2023-12-20T12:11:51;7.30;99.90
15991;DHT22;8100;50.994;4.538;2023-12-20T12:14:39;7.20;99.90
15991;DHT22;8100;50.994;4.538;2023-12-20T12:17:27;7.30;99.90
15991;DHT22;8100;50.994;4.538;2023-12-20T12:20:23;7.40;99.90
15991;DHT22;8100;50.994;4.538;2023-12-20T12:23:13;7.50;99.90
15991;DHT22;8100;50.994;4.538;2023-12-20T12:26:03;7.60;99.90
15991;DHT22;8100;50.994;4.538;2023-12-20T12:28:52;7.70;99.90
15991;DHT22;8100;50.994;4.538;2023-12-20T12:31:39;7.70;99.90
15991;DHT22;8100;50.994;4.538;2023-12-20T12:34:27;7.70;99.90
15991;DHT22;8100;50.994;4.538;2023-12-20T12:37:16;7.80;99.90
15991;DHT22;8100;50.994;4.538;2023-12-20T12:40:04;7.80;99.90
15991;DHT22;8100;50.994;4.538;2023-12-20T12:42:53;7.90;99.90
15991;DHT22;8100;50.994;4.538;2023-12-20T12:45:41;8.10;99.90
15991;DHT22;8100;50.994;4.538;2023-12-20T12:48:29;8.10;99.90
15991;DHT22;8100;50.994;4.538;2023-12-20T12:51:16;8.10;95.50
15991;DHT22;8100;50.994;4.538;2023-12-20T12:54:03;8.00;99.90
15991;DHT22;8100;50.994;4.538;2023-12-20T12:56:52;8.10;99.90
15991;DHT22;8100;50.994;4.538;2023-12-20T12:59:39;8.10;99.90
15991;DHT22;8100;50.994;4.538;2023-12-20T13:02:28;8.10;99.90
15991;DHT22;8100;50.994;4.538;2023-12-20T13:05:15;8.10;99.90
15991;DHT22;8100;50.994;4.538;2023-12-20T13:08:09;8.00;99.90
15991;DHT22;8100;50.994;4.538;2023-12-20T13:10:59;8.00;99.90
15991;DHT22;8100;50.994;4.538;2023-12-20T13:13:50;8.00;99.90
15991;DHT22;8100;50.994;4.538;2023-12-20T13:16:36;8.00;99.90
15991;DHT22;8100;50.994;4.538;2023-12-20T13:19:25;8.00;99.90
15991;DHT22;8100;50.994;4.538;2023-12-20T13:22:12;8.00;99.90
15991;DHT22;8100;50.994;4.538;2023-12-20T13:24:59;8.10;99.90
15991;DHT22;8100;50.994;4.538;2023-12-20T13:27:46;8.10;99.90
15991;DHT22;8100;50.994;4.538;2023-12-20T13:30:33;8.10;99.90
15991;DHT22;8100;50.994;4.538;2023-12-20T13:33:21;8.20;99.90
15991;DHT22;8100;50.994;4.538;2023-12-20T13:36:09;8.20;99.90
15991;DHT22;8100;50.994;4.538;2023-12-20T13:38:56;8.20;99.90
15991;DHT22;8100;50.994;4.538;2023-12-20T13:41:43;8.20;99.90
15991;DHT22;8100;50.994;4.538;2023-12-20T13:44:31;8.20;99.90
15991;DHT22;8100;50.994;4.538;2023-12-20T13:47:18;8.30;99.90
15991;DHT22;8100;50.994;4.538;2023-12-20T13:50:06;8.30;99.90
15991;DHT22;8100;50.994;4.538;2023-12-20T13:52:54;8.40;99.90
15991;DHT22;8100;50.994;4.538;2023-12-20T13:55:41;8.40;99.90
15991;DHT22;8100;50.994;4.538;2023-12-20T13:58:28;8.40;99.90
15991;DHT22;8100;50.994;4.538;2023-12-20T14:01:16;8.30;99.90
15991;DHT22;8100;50.994;4.538;2023-12-20T14:04:03;8.30;99.90
15991;DHT22;8100;50.994;4.538;2023-12-20T14:06:51;8.30;99.90
15991;DHT22;8100;50.994;4.538;2023-12-20T14:09:39;8.30;99.90
15991;DHT22;8100;50.994;4.538;2023-12-20T14:12:30;8.30;99.90
15991;DHT22;8100;50.994;4.538;2023-12-20T14:15:21;8.30;99.90
15991;DHT22;8100;50.994;4.538;2023-12-20T14:18:10;8.40;99.50
15991;DHT22;8100;50.994;4.538;2023-12-20T14:21:00;8.40;99.90
15991;DHT22;8100;50.994;4.538;2023-12-20T14:23:47;8.40;93.70
15991;DHT22;8100;50.994;4.538;2023-12-20T14:26:35;8.50;87.20
15991;DHT22;8100;50.994;4.538;2023-12-20T14:29:23;8.50;57.90
15991;DHT22;8100;50.994;4.538;2023-12-20T14:32:11;8.50;61.60
15991;DHT22;8100;50.994;4.538;2023-12-20T14:34:59;8.60;61.60
15991;DHT22;8100;50.994;4.538;2023-12-20T14:37:46;8.60;78.80
15991;DHT22;8100;50.994;4.538;2023-12-20T14:40:33;8.50;49.00
15991;DHT22;8100;50.994;4.538;2023-12-20T14:43:22;8.50;69.30
15991;DHT22;8100;50.994;4.538;2023-12-20T14:46:09;8.50;91.70
15991;DHT22;8100;50.994;4.538;2023-12-20T14:48:56;8.50;75.00
15991;DHT22;8100;50.994;4.538;2023-12-20T14:51:44;8.60;63.00
15991;DHT22;8100;50.994;4.538;2023-12-20T14:54:33;8.60;70.80
15991;DHT22;8100;50.994;4.538;2023-12-20T14:57:20;8.50;60.90
15991;DHT22;8100;50.994;4.538;2023-12-20T15:00:09;8.50;79.30
15991;DHT22;8100;50.994;4.538;2023-12-20T15:03:01;8.50;96.60
15991;DHT22;8100;50.994;4.538;2023-12-20T15:05:50;8.50;86.90
15991;DHT22;8100;50.994;4.538;2023-12-20T15:08:37;8.60;55.00
15991;DHT22;8100;50.994;4.538;2023-12-20T15:11:28;8.60;81.60
15991;DHT22;8100;50.994;4.538;2023-12-20T15:14:15;8.60;71.80
15991;DHT22;8100;50.994;4.538;2023-12-20T15:17:06;8.60;56.50
15991;DHT22;8100;50.994;4.538;2023-12-20T15:19:54;8.50;55.50
15991;DHT22;8100;50.994;4.538;2023-12-20T15:22:41;8.60;45.70
15991;DHT22;8100;50.994;4.538;2023-12-20T15:25:31;8.60;30.40
15991;DHT22;8100;50.994;4.538;2023-12-20T15:28:18;8.60;68.10
15991;DHT22;8100;50.994;4.538;2023-12-20T15:31:05;8.60;54.50
15991;DHT22;8100;50.994;4.538;2023-12-20T15:33:54;8.60;37.20
15991;DHT22;8100;50.994;4.538;2023-12-20T15:36:42;8.60;47.20
15991;DHT22;8100;50.994;4.538;2023-12-20T15:39:29;8.70;35.20
15991;DHT22;8100;50.994;4.538;2023-12-20T15:42:17;8.60;46.50
15991;DHT22;8100;50.994;4.538;2023-12-20T15:45:06;8.60;63.00
15991;DHT22;8100;50.994;4.538;2023-12-20T15:47:53;8.60;48.10
15991;DHT22;8100;50.994;4.538;2023-12-20T15:50:41;8.60;72.10
15991;DHT22;8100;50.994;4.538;2023-12-20T15:53:29;8.60;93.20
15991;DHT22;8100;50.994;4.538;2023-12-20T15:56:16;8.60;79.30
15991;DHT22;8100;50.994;4.538;2023-12-20T15:59:03;8.60;99.90
15991;DHT22;8100;50.994;4.538;2023-12-20T16:01:50;8.40;99.90
15991;DHT22;8100;50.994;4.538;2023-12-20T16:04:37;8.40;99.90
15991;DHT22;8100;50.994;4.538;2023-12-20T16:07:26;8.30;99.90
15991;DHT22;8100;50.994;4.538;2023-12-20T16:10:32;8.20;99.90
15991;DHT22;8100;50.994;4.538;2023-12-20T16:13:19;8.20;99.90
15991;DHT22;8100;50.994;4.538;2023-12-20T16:16:07;8.20;99.90
15991;DHT22;8100;50.994;4.538;2023-12-20T16:18:54;8.20;99.90
15991;DHT22;8100;50.994;4.538;2023-12-20T16:21:41;8.20;99.90
15991;DHT22;8100;50.994;4.538;2023-12-20T16:24:29;8.30;99.90
15991;DHT22;8100;50.994;4.538;2023-12-20T16:27:17;8.30;99.90
15991;DHT22;8100;50.994;4.538;2023-12-20T16:30:05;8.30;99.90
15991;DHT22;8100;50.994;4.538;2023-12-20T16:32:52;8.40;99.90
15991;DHT22;8100;50.994;4.538;2023-12-20T16:35:39;8.40;99.90
15991;DHT22;8100;50.994;4.538;2023-12-20T16:38:26;8.40;99.90
15991;DHT22;8100;50.994;4.538;2023-12-20T16:41:15;8.50;99.90
15991;DHT22;8100;50.994;4.538;2023-12-20T16:44:02;8.50;99.90
15991;DHT22;8100;50.994;4.538;2023-12-20T16:46:49;8.50;99.90
15991;DHT22;8100;50.994;4.538;2023-12-20T16:49:36;8.50;99.90
15991;DHT22;8100;50.994;4.538;2023-12-20T16:52:23;8.50;99.90
15991;DHT22;8100;50.994;4.538;2023-12-20T16:55:10;8.40;99.90
15991;DHT22;8100;50.994;4.538;2023-12-20T16:57:59;8.30;99.90
15991;DHT22;8100;50.994;4.538;2023-12-20T17:00:46;8.40;99.90
15991;DHT22;8100;50.994;4.538;2023-12-20T17:03:33;8.40;99.90
15991;DHT22;8100;50.994;4.538;2023-12-20T17:06:20;8.40;99.90
15991;DHT22;8100;50.994;4.538;2023-12-20T17:09:09;8.40;99.90
15991;DHT22;8100;50.994;4.538;2023-12-20T17:11:56;8.50;99.90
15991;DHT22;8100;50.994;4.538;2023-12-20T17:14:45;8.50;99.90
15991;DHT22;8100;50.994;4.538;2023-12-20T17:17:32;8.50;99.90
15991;DHT22;8100;50.994;4.538;2023-12-20T17:20:19;8.50;99.90
15991;DHT22;8100;50.994;4.538;2023-12-20T17:23:06;8.60;99.90
15991;DHT22;8100;50.994;4.538;2023-12-20T17:25:53;8.60;99.90
15991;DHT22;8100;50.994;4.538;2023-12-20T17:28:40;8.70;99.90
15991;DHT22;8100;50.994;4.538;2023-12-20T17:31:28;8.70;99.90
15991;DHT22;8100;50.994;4.538;2023-12-20T17:34:15;8.70;99.90
15991;DHT22;8100;50.994;4.538;2023-12-20T17:37:03;8.70;99.90
15991;DHT22;8100;50.994;4.538;2023-12-20T17:39:50;8.70;99.90
15991;DHT22;8100;50.994;4.538;2023-12-20T17:42:37;8.70;99.90
15991;DHT22;8100;50.994;4.538;2023-12-20T17:45:24;8.60;99.90
15991;DHT22;8100;50.994;4.538;2023-12-20T17:48:12;8.60;99.90
15991;DHT22;8100;50.994;4.538;2023-12-20T17:51:01;8.60;99.90
15991;DHT22;8100;50.994;4.538;2023-12-20T17:53:48;8.70;99.90
15991;DHT22;8100;50.994;4.538;2023-12-20T17:56:36;8.70;99.90
15991;DHT22;8100;50.994;4.538;2023-12-20T17:59:23;8.70;99.90
15991;DHT22;8100;50.994;4.538;2023-12-20T18:02:09;8.70;99.90
15991;DHT22;8100;50.994;4.538;2023-12-20T18:04:58;8.70;99.90
15991;DHT22;8100;50.994;4.538;2023-12-20T18:07:45;8.70;99.90
15991;DHT22;8100;50.994;4.538;2023-12-20T18:10:34;8.70;99.90
15991;DHT22;8100;50.994;4.538;2023-12-20T18:13:20;8.70;99.90
15991;DHT22;8100;50.994;4.538;2023-12-20T18:16:07;8.70;99.90
15991;DHT22;8100;50.994;4.538;2023-12-20T18:18:56;8.70;99.90